Time;durP1;ratioP1;P1;durP2;ratioP2;P2;SDS_P1;SDS_P2;PMS_P1;PMS_P2;Temp;Humidity;BMP_temperature;BMP_pressure;BME280_temperature;BME280_humidity;BME280_pressure;Samples;Min_cycle;Max_cycle;Signal;HPM_P1;HPM_P2
2022/11/24 00:00:50;;;;;;;13.90;12.30;;;;;;;2.42;100.00;96183.28;5030512;28;20230;-70
2022/11/24 00:03:18;;;;;;;14.57;13.17;;;;;;;2.49;100.00;96185.28;5001128;28;21615;-74
2022/11/24 00:05:47;;;;;;;12.90;11.67;;;;;;;2.44;100.00;96186.56;5031252;28;20573;-72
2022/11/24 00:08:15;;;;;;;13.60;12.13;;;;;;;2.44;100.00;96197.03;5001959;28;20433;-74
2022/11/24 00:10:42;;;;;;;14.07;12.60;;;;;;;2.46;100.00;96199.47;5033504;28;20285;-74
2022/11/24 00:13:10;;;;;;;15.07;13.57;;;;;;;2.46;100.00;96197.69;4980594;28;20342;-74
2022/11/24 00:15:38;;;;;;;16.10;14.40;;;;;;;2.44;100.00;96198.81;5029482;28;20204;-73
2022/11/24 00:18:05;;;;;;;17.67;15.77;;;;;;;2.46;100.00;96191.63;5031018;28;20226;-73
2022/11/24 00:20:33;;;;;;;17.43;15.57;;;;;;;2.42;100.00;96200.75;5007285;28;20633;-73
2022/11/24 00:23:02;;;;;;;15.80;14.20;;;;;;;2.40;100.00;96207.94;5003102;28;20717;-72
2022/11/24 00:25:30;;;;;;;16.93;15.20;;;;;;;2.41;100.00;96209.59;5033503;28;20290;-73
2022/11/24 00:28:03;;;;;;;16.97;14.43;;;;;;;2.43;100.00;96210.25;4991571;28;20824;-72
2022/11/24 00:30:30;;;;;;;19.07;14.67;;;;;;;2.43;100.00;96210.25;5029129;28;20200;-73
2022/11/24 00:32:58;;;;;;;18.57;16.20;;;;;;;2.39;100.00;96212.38;4971631;28;20596;-72
2022/11/24 00:35:26;;;;;;;17.37;15.47;;;;;;;2.41;100.00;96214.81;5028907;28;20207;-71
2022/11/24 00:37:55;;;;;;;16.50;14.70;;;;;;;2.42;100.00;96212.06;5028705;28;20466;-73
2022/11/24 00:40:24;;;;;;;18.07;16.10;;;;;;;2.36;100.00;96215.28;5033709;28;20223;-72
2022/11/24 00:42:51;;;;;;;21.40;15.83;;;;;;;2.34;100.00;96219.03;5030288;28;20220;-73
2022/11/24 00:45:19;;;;;;;20.30;15.87;;;;;;;2.35;100.00;96225.91;5031202;28;20211;-72
2022/11/24 00:47:47;;;;;;;18.80;15.03;;;;;;;2.32;100.00;96227.03;5029302;28;20461;-73
2022/11/24 00:50:14;;;;;;;19.53;14.87;;;;;;;2.35;100.00;96229.34;4966351;28;20831;-71
2022/11/24 00:52:42;;;;;;;17.93;15.43;;;;;;;2.35;100.00;96231.13;5017659;28;20706;-73
2022/11/24 00:55:10;;;;;;;16.83;14.87;;;;;;;2.36;100.00;96235.38;5032309;28;20278;-71
2022/11/24 00:57:39;;;;;;;16.97;15.23;;;;;;;2.30;100.00;96231.59;5031209;28;20442;-73
2022/11/24 01:00:08;;;;;;;18.87;15.70;;;;;;;2.35;100.00;96239.81;5027160;28;20204;-72
2022/11/24 01:02:35;;;;;;;17.03;15.23;;;;;;;2.34;100.00;96245.16;5029465;28;20841;-73
2022/11/24 01:05:03;;;;;;;20.37;15.90;;;;;;;2.34;100.00;96243.41;4980375;28;20566;-74
2022/11/24 01:07:31;;;;;;;17.80;15.90;;;;;;;2.35;100.00;96246.81;5024900;28;20444;-74
2022/11/24 01:09:59;;;;;;;18.93;15.47;;;;;;;2.33;100.00;96254.00;5032689;28;20204;-73
2022/11/24 01:12:27;;;;;;;17.27;15.23;;;;;;;2.36;100.00;96251.06;5029268;28;20683;-71
2022/11/24 01:14:56;;;;;;;19.57;16.23;;;;;;;2.36;100.00;96253.69;5032782;28;20476;-74
2022/11/24 01:17:23;;;;;;;20.33;15.90;;;;;;;2.34;100.00;96258.25;5027998;28;20303;-72
2022/11/24 01:19:51;;;;;;;20.33;16.37;;;;;;;2.33;100.00;96260.06;4979810;28;20223;-74
2022/11/24 01:22:19;;;;;;;20.07;17.17;;;;;;;2.35;100.00;96265.94;5029468;28;20223;-71
2022/11/24 01:24:46;;;;;;;18.63;16.27;;;;;;;2.33;100.00;96270.50;5029877;28;20204;-73
2022/11/24 01:27:14;;;;;;;18.03;15.90;;;;;;;2.35;100.00;96271.19;5031653;28;20220;-71
2022/11/24 01:29:41;;;;;;;18.47;15.63;;;;;;;2.37;100.00;96274.44;5030059;28;20516;-73
2022/11/24 01:32:10;;;;;;;21.83;17.10;;;;;;;2.37;100.00;96284.91;5025223;28;20192;-72
2022/11/24 01:34:38;;;;;;;18.13;16.27;;;;;;;2.36;100.00;96285.06;4981333;28;20708;-72
2022/11/24 01:37:05;;;;;;;20.37;17.23;;;;;;;2.37;100.00;96294.53;5030512;28;20223;-73
2022/11/24 01:39:33;;;;;;;20.50;16.30;;;;;;;2.37;100.00;96291.91;5031353;28;20216;-72
2022/11/24 01:42:01;;;;;;;18.17;16.27;;;;;;;2.34;100.00;96289.63;5031934;28;20745;-73
2022/11/24 01:44:29;;;;;;;20.43;16.73;;;;;;;2.37;100.00;96291.91;5027756;28;20422;-73
2022/11/24 01:46:59;;;;;;;20.27;17.30;;;;;;;2.38;100.00;96285.72;5034570;28;20637;-73
2022/11/24 01:49:36;;;;;;;18.10;16.27;;;;;;;2.37;100.00;96291.91;5027996;28;20219;-72
2022/11/24 01:52:07;;;;;;;19.37;15.87;;;;;;;2.38;100.00;96301.41;4985799;28;20211;-71
2022/11/24 01:54:36;;;;;;;19.83;17.77;;;;;;;2.37;100.00;96295.38;5029441;28;20537;-73
2022/11/24 01:57:10;;;;;;;20.70;17.30;;;;;;;2.42;100.00;96302.72;5032265;28;20223;-73
2022/11/24 01:59:38;;;;;;;21.53;15.97;;;;;;;2.42;100.00;96300.13;5026810;28;20463;-73
2022/11/24 02:02:05;;;;;;;19.63;17.20;;;;;;;2.37;100.00;96302.38;5031092;28;20246;-73
2022/11/24 02:04:35;;;;;;;20.63;16.97;;;;;;;2.34;100.00;96308.75;5029321;28;20843;-72
2022/11/24 02:07:05;;;;;;;20.43;16.87;;;;;;;2.35;100.00;96307.78;4975638;28;20733;-72
2022/11/24 02:09:40;;;;;;;19.10;15.67;;;;;;;2.33;100.00;96321.97;5027703;28;22176;-73
2022/11/24 02:12:08;;;;;;;18.17;16.23;;;;;;;2.30;100.00;96313.44;5032749;28;20206;-71
2022/11/24 02:14:36;;;;;;;19.53;15.83;;;;;;;2.40;100.00;96323.81;5024729;28;20249;-71
2022/11/24 02:17:04;;;;;;;17.63;15.83;;;;;;;2.47;100.00;96331.88;5027888;28;20234;-73
2022/11/24 02:19:40;;;;;;;18.27;16.33;;;;;;;2.42;100.00;96337.56;5028242;28;20313;-72
2022/11/24 02:22:12;;;;;;;16.53;14.70;;;;;;;2.45;100.00;96336.41;4981406;28;20462;-70
2022/11/24 02:24:43;;;;;;;18.10;15.83;;;;;;;2.40;100.00;96329.03;5026953;28;20424;-72
2022/11/24 02:27:12;;;;;;;17.17;15.13;;;;;;;2.36;100.00;96329.50;5029838;28;20223;-71
2022/11/24 02:29:40;;;;;;;16.93;15.20;;;;;;;2.30;100.00;96328.34;5027507;28;20212;-73
2022/11/24 02:32:09;;;;;;;18.17;14.27;;;;;;;2.23;100.00;96333.34;5027908;28;20196;-73
2022/11/24 02:34:37;;;;;;;17.27;15.07;;;;;;;2.28;100.00;96335.50;5024374;28;20211;-71
2022/11/24 02:37:04;;;;;;;17.13;15.33;;;;;;;2.27;100.00;96341.69;5031517;28;20760;-73
2022/11/24 02:39:32;;;;;;;15.97;14.37;;;;;;;2.25;100.00;96343.63;4985858;28;20344;-74
2022/11/24 02:42:02;;;;;;;16.90;14.30;;;;;;;2.24;100.00;96342.81;4934196;28;20231;-73
2022/11/24 02:44:35;;;;;;;15.67;14.00;;;;;;;2.29;100.00;96345.00;5027779;28;20203;-72
2022/11/24 02:47:05;;;;;;;15.27;13.63;;;;;;;2.34;100.00;96347.97;4999761;28;20220;-71
2022/11/24 02:49:32;;;;;;;18.03;14.93;;;;;;;2.47;100.00;96350.19;5037324;28;20522;-73
2022/11/24 02:52:00;;;;;;;17.37;14.27;;;;;;;2.56;100.00;96353.66;5026669;28;20487;-73
2022/11/24 02:54:28;;;;;;;15.07;13.37;;;;;;;2.57;100.00;96358.75;5029104;28;20207;-73
2022/11/24 02:56:56;;;;;;;14.83;13.30;;;;;;;2.57;100.00;96357.91;4977951;28;20862;-71
2022/11/24 02:59:24;;;;;;;17.60;14.17;;;;;;;2.67;100.00;96360.41;5029151;28;20615;-73
2022/11/24 03:01:53;;;;;;;15.93;14.33;;;;;;;2.68;100.00;96362.91;5028933;28;20394;-71
2022/11/24 03:04:20;;;;;;;15.23;13.50;;;;;;;2.65;100.00;96362.38;5000929;28;20489;-71
2022/11/24 03:06:48;;;;;;;14.80;13.27;;;;;;;2.75;100.00;96374.38;5022762;28;20246;-72
2022/11/24 03:09:16;;;;;;;15.60;13.13;;;;;;;2.69;100.00;96375.00;5033252;28;20437;-71
2022/11/24 03:11:43;;;;;;;16.90;13.30;;;;;;;2.69;100.00;96376.78;4978388;28;20378;-71
2022/11/24 03:14:11;;;;;;;14.07;12.67;;;;;;;2.67;100.00;96383.97;5028277;28;20357;-73
2022/11/24 03:16:39;;;;;;;12.77;11.53;;;;;;;2.81;100.00;96387.81;5025859;28;20369;-72
2022/11/24 03:19:07;;;;;;;13.47;12.07;;;;;;;2.87;100.00;96384.56;4998433;28;20874;-74
2022/11/24 03:21:36;;;;;;;14.13;12.33;;;;;;;2.92;100.00;96386.72;5031915;28;20211;-73
2022/11/24 03:24:04;;;;;;;13.40;12.07;;;;;;;2.95;100.00;96396.88;5031759;28;20261;-73
2022/11/24 03:26:33;;;;;;;13.33;12.03;;;;;;;3.05;100.00;96384.50;4978698;28;20391;-72
2022/11/24 03:29:01;;;;;;;14.40;12.27;;;;;;;3.04;100.00;96388.09;5029111;28;20617;-70
2022/11/24 03:31:29;;;;;;;12.77;11.53;;;;;;;3.01;100.00;96396.25;5034011;28;20215;-72
2022/11/24 03:33:57;;;;;;;15.00;12.10;;;;;;;3.00;100.00;96397.25;5032624;28;20200;-73
2022/11/24 03:36:26;;;;;;;13.67;12.17;;;;;;;2.97;100.00;96395.75;5003511;28;20228;-74
2022/11/24 03:38:54;;;;;;;12.70;10.67;;;;;;;2.97;100.00;96385.28;5035601;28;20202;-73
2022/11/24 03:41:22;;;;;;;15.13;11.43;;;;;;;2.98;100.00;96400.00;4975508;28;20211;-72
2022/11/24 03:43:49;;;;;;;12.63;10.90;;;;;;;2.99;100.00;96401.63;5030638;28;20617;-74
2022/11/24 03:46:17;;;;;;;13.27;11.13;;;;;;;2.99;100.00;96406.06;5031806;28;20583;-72
2022/11/24 03:48:45;;;;;;;14.27;11.43;;;;;;;3.00;100.00;96405.09;5031153;28;20253;-73
2022/11/24 03:51:12;;;;;;;14.00;11.30;;;;;;;3.03;100.00;96410.00;5004659;28;20584;-72
2022/11/24 03:53:41;;;;;;;12.50;10.20;;;;;;;3.07;100.00;96410.53;5038215;28;20285;-74
2022/11/24 03:56:09;;;;;;;11.10;10.03;;;;;;;3.02;100.00;96414.41;5034509;28;20258;-72
2022/11/24 03:58:37;;;;;;;10.07;9.07;;;;;;;3.11;100.00;96412.66;4982770;28;20813;-73
2022/11/24 04:01:04;;;;;;;9.43;8.57;;;;;;;3.13;100.00;96417.75;5029717;28;20207;-74
2022/11/24 04:03:32;;;;;;;13.77;8.33;;;;;;;3.22;100.00;96415.97;5031560;28;20524;-74
2022/11/24 04:06:00;;;;;;;10.00;9.00;;;;;;;3.30;100.00;96419.47;5027634;28;20212;-73
2022/11/24 04:08:27;;;;;;;14.20;8.27;;;;;;;3.35;100.00;96418.16;5005073;28;20219;-74
2022/11/24 04:10:56;;;;;;;8.77;7.90;;;;;;;3.37;100.00;96429.31;5034350;28;20621;-74
2022/11/24 04:13:24;;;;;;;14.73;8.67;;;;;;;3.41;100.00;96428.00;4978993;28;20211;-72
2022/11/24 04:15:52;;;;;;;10.17;8.87;;;;;;;3.43;100.00;96437.38;5030116;28;20281;-73
2022/11/24 04:18:20;;;;;;;12.57;8.27;;;;;;;3.46;100.00;96428.38;5031061;28;20207;-73
2022/11/24 04:20:49;;;;;;;12.33;8.73;;;;;;;3.50;100.00;96431.50;5032818;28;20649;-72
2022/11/24 04:23:17;;;;;;;12.47;8.27;;;;;;;3.50;100.00;96426.25;5003843;28;20254;-73
2022/11/24 04:25:45;;;;;;;11.47;7.93;;;;;;;3.53;100.00;96433.78;5032745;28;20200;-74
2022/11/24 04:28:14;;;;;;;13.97;8.13;;;;;;;3.54;100.00;96440.66;5011233;28;20273;-72
2022/11/24 04:30:43;;;;;;;14.47;8.60;;;;;;;3.54;100.00;96440.66;5006906;28;20936;-74
2022/11/24 04:33:12;;;;;;;13.93;8.43;;;;;;;3.55;100.00;96443.16;5010780;28;20206;-72
2022/11/24 04:35:40;;;;;;;9.63;8.10;;;;;;;3.54;100.00;96440.66;5026200;28;20628;-74
2022/11/24 04:38:07;;;;;;;10.07;7.37;;;;;;;3.62;100.00;96443.34;5001659;28;20227;-73
2022/11/24 04:40:35;;;;;;;11.37;8.63;;;;;;;3.57;100.00;96450.84;5030986;28;20361;-75
2022/11/24 04:43:02;;;;;;;10.97;8.27;;;;;;;3.57;100.00;96450.84;4971704;28;20476;-72
2022/11/24 04:45:31;;;;;;;13.60;8.83;;;;;;;3.53;100.00;96454.75;4981808;28;20900;-71
2022/11/24 04:47:59;;;;;;;15.87;8.27;;;;;;;3.53;100.00;96449.50;5006997;28;20568;-72
2022/11/24 04:50:28;;;;;;;8.50;7.37;;;;;;;3.52;100.00;96461.81;4961753;28;20367;-73
2022/11/24 04:52:55;;;;;;;11.07;7.27;;;;;;;3.57;100.00;96471.78;5031134;28;20624;-73
2022/11/24 04:55:23;;;;;;;10.43;8.17;;;;;;;3.61;100.00;96465.28;4990795;28;20433;-75
2022/11/24 04:57:51;;;;;;;11.07;8.13;;;;;;;3.66;100.00;96472.66;5034369;28;20222;-74
2022/11/24 05:00:19;;;;;;;12.17;8.37;;;;;;;3.62;100.00;96469.53;5009333;28;20600;-72
2022/11/24 05:02:48;;;;;;;10.97;7.60;;;;;;;3.76;100.00;96481.19;5033654;28;20834;-75
2022/11/24 05:05:15;;;;;;;13.30;9.00;;;;;;;3.66;100.00;96481.34;4997588;28;20211;-73
2022/11/24 05:07:43;;;;;;;12.97;7.53;;;;;;;3.65;100.00;96476.25;5037673;28;20223;-76
2022/11/24 05:12:58;;;;;;;15.87;8.47;;;;;;;3.68;100.00;96482.00;5010404;28;20597;-72
2022/11/24 05:15:26;;;;;;;13.97;7.40;;;;;;;3.70;100.00;96489.69;5013829;28;20279;-76
2022/11/24 05:17:55;;;;;;;9.40;8.33;;;;;;;3.72;100.00;96492.97;5033179;28;21514;-72
2022/11/24 05:20:23;;;;;;;12.80;8.17;;;;;;;3.73;100.00;96492.84;4979101;28;20238;-74
2022/11/24 05:22:51;;;;;;;13.40;7.60;;;;;;;3.72;100.00;96496.44;5030623;28;20639;-72
2022/11/24 05:25:19;;;;;;;14.43;8.87;;;;;;;3.72;100.00;96500.84;4990021;28;20234;-73
2022/11/24 05:27:46;;;;;;;14.93;8.30;;;;;;;3.73;100.00;96508.56;5001669;28;20231;-74
2022/11/24 05:30:14;;;;;;;13.60;8.50;;;;;;;3.74;100.00;96509.34;5012101;28;20668;-71
2022/11/24 05:32:42;;;;;;;18.17;10.37;;;;;;;3.74;100.00;96518.06;5026755;28;20282;-75
2022/11/24 05:35:12;;;;;;;13.23;10.00;;;;;;;3.73;100.00;96521.66;4978940;28;20265;-72
2022/11/24 05:37:39;;;;;;;22.67;10.37;;;;;;;3.76;100.00;96526.56;5028299;28;20883;-74
2022/11/24 05:40:08;;;;;;;13.87;9.57;;;;;;;3.78;100.00;96536.88;5023271;28;20218;-72
2022/11/24 05:42:42;;;;;;;10.47;7.23;;;;;;;3.76;100.00;96525.75;4988755;28;20933;-73
2022/11/24 05:45:16;;;;;;;14.47;8.23;;;;;;;3.77;100.00;96532.63;5024163;28;20216;-74
2022/11/24 05:47:44;;;;;;;16.87;10.37;;;;;;;3.75;100.00;96537.19;5000149;28;20235;-73
2022/11/24 05:50:16;;;;;;;12.97;8.80;;;;;;;3.75;100.00;96539.81;5000705;28;20204;-70
2022/11/24 05:52:44;;;;;;;14.80;8.13;;;;;;;3.74;100.00;96541.63;5025636;28;20711;-75
2022/11/24 05:55:13;;;;;;;10.57;7.83;;;;;;;3.72;100.00;96535.72;5027620;28;20207;-73
2022/11/24 05:57:41;;;;;;;15.17;8.83;;;;;;;3.73;100.00;96541.78;5000373;28;20506;-75
2022/11/24 06:00:10;;;;;;;12.47;8.03;;;;;;;3.75;100.00;96547.69;5000307;28;20219;-73
2022/11/24 06:02:38;;;;;;;13.40;7.80;;;;;;;3.77;100.00;96550.97;5012076;28;20466;-74
2022/11/24 06:05:06;;;;;;;17.23;8.90;;;;;;;3.76;100.00;96555.41;5030420;28;20310;-73
2022/11/24 06:07:35;;;;;;;11.60;8.77;;;;;;;3.79;100.00;96549.03;4976993;28;20939;-75
2022/11/24 06:10:04;;;;;;;14.03;8.30;;;;;;;3.80;100.00;96552.47;5030085;28;20199;-73
2022/11/24 06:12:31;;;;;;;8.67;7.57;;;;;;;3.80;100.00;96553.31;5002234;28;20284;-74
2022/11/24 06:14:59;;;;;;;14.73;7.43;;;;;;;3.78;100.00;96554.44;5006394;28;20737;-75
2022/11/24 06:17:27;;;;;;;16.27;9.73;;;;;;;3.80;100.00;96563.78;5002689;28;20947;-75
2022/11/24 06:19:54;;;;;;;15.17;7.90;;;;;;;3.75;100.00;96561.63;5010793;28;20683;-75
2022/11/24 06:22:22;;;;;;;12.03;6.10;;;;;;;3.77;100.00;96566.69;4987986;28;20595;-73
2022/11/24 06:24:51;;;;;;;15.90;6.90;;;;;;;3.81;100.00;96567.22;5007643;28;20227;-74
2022/11/24 06:27:19;;;;;;;12.20;7.03;;;;;;;3.84;100.00;96569.50;5026110;28;20718;-73
2022/11/24 06:29:46;;;;;;;15.65;9.48;;;;;;;3.85;100.00;96573.78;5011964;28;20447;-75
2022/11/24 06:32:14;;;;;;;13.23;8.53;;;;;;;3.94;100.00;96577.28;5011530;28;20203;-74
2022/11/24 06:34:42;;;;;;;12.87;8.53;;;;;;;3.94;100.00;96582.50;5027137;28;20330;-72
2022/11/24 06:37:10;;;;;;;16.75;10.65;;;;;;;3.96;100.00;96580.56;4998358;28;20526;-73
2022/11/24 06:39:38;;;;;;;18.33;8.60;;;;;;;4.00;100.00;96577.47;5000972;28;20219;-74
2022/11/24 06:42:07;;;;;;;16.77;7.97;;;;;;;3.99;100.00;96585.47;5010939;28;20598;-74
2022/11/24 06:44:35;;;;;;;11.73;6.67;;;;;;;3.96;100.00;96580.56;5009651;28;20399;-74
2022/11/24 06:47:03;;;;;;;10.97;6.63;;;;;;;3.93;100.00;96586.91;5012671;28;20229;-73
2022/11/24 06:49:30;;;;;;;13.07;6.37;;;;;;;3.96;100.00;96591.03;5006712;28;20317;-74
2022/11/24 06:51:58;;;;;;;18.67;7.88;;;;;;;3.92;100.00;96587.91;5028238;28;20514;-76
2022/11/24 06:54:25;;;;;;;13.03;6.87;;;;;;;3.91;100.00;96583.63;4999224;28;21024;-73
2022/11/24 06:56:57;;;;;;;12.40;6.30;;;;;;;3.93;100.00;96591.34;4984955;28;20612;-73
2022/11/24 06:59:26;;;;;;;16.53;7.53;;;;;;;3.92;100.00;96595.75;5017567;28;20425;-74
2022/11/24 07:01:57;;;;;;;10.60;6.00;;;;;;;3.94;100.00;96596.41;5028460;28;20606;-75
2022/11/24 07:04:25;;;;;;;9.37;7.00;;;;;;;3.89;100.00;96598.69;5018727;28;20236;-75
2022/11/24 07:06:53;;;;;;;11.03;7.57;;;;;;;3.89;100.00;96601.31;5024050;28;20223;-73
2022/11/24 07:09:20;;;;;;;12.17;6.77;;;;;;;3.94;100.00;96600.84;5026691;28;20200;-75
2022/11/24 07:11:48;;;;;;;14.93;7.43;;;;;;;3.95;100.00;96599.88;4984012;28;20207;-74
2022/11/24 07:14:16;;;;;;;9.97;6.67;;;;;;;4.00;100.00;96608.94;5025787;28;20397;-71
2022/11/24 07:16:45;;;;;;;12.47;6.80;;;;;;;4.02;100.00;96611.38;5000862;28;20270;-72
2022/11/24 07:19:13;;;;;;;12.07;6.80;;;;;;;4.05;100.00;96614.53;5004893;28;20214;-73
2022/11/24 07:21:40;;;;;;;11.70;6.27;;;;;;;4.09;100.00;96616.81;5029303;28;20678;-72
2022/11/24 07:24:08;;;;;;;15.13;6.57;;;;;;;4.12;100.00;96612.06;5024872;28;20448;-73
2022/11/24 07:26:42;;;;;;;10.80;6.27;;;;;;;4.22;100.00;96611.94;5024652;28;20227;-73
2022/11/24 07:29:13;;;;;;;9.43;5.20;;;;;;;4.24;100.00;96606.56;5008421;28;20207;-77
2022/11/24 07:31:41;;;;;;;9.33;5.90;;;;;;;4.26;100.00;96609.84;4998227;28;20204;-73
2022/11/24 07:34:10;;;;;;;10.43;4.97;;;;;;;4.23;100.00;96612.78;5002021;28;20215;-73
2022/11/24 07:36:38;;;;;;;9.67;5.10;;;;;;;4.14;100.00;96615.34;5031783;28;20219;-72
2022/11/24 07:39:06;;;;;;;7.43;4.60;;;;;;;4.12;100.00;96616.50;5029722;28;20207;-72
2022/11/24 07:41:34;;;;;;;5.93;4.33;;;;;;;4.11;100.00;96622.72;5029335;28;20215;-74
2022/11/24 07:44:01;;;;;;;12.23;5.13;;;;;;;4.07;100.00;96630.06;4977992;28;20215;-75
2022/11/24 07:46:29;;;;;;;9.37;4.87;;;;;;;4.10;100.00;96628.97;5026881;28;20796;-76
2022/11/24 07:48:56;;;;;;;10.00;5.63;;;;;;;4.14;100.00;96625.84;5003989;28;20440;-76
2022/11/24 07:51:25;;;;;;;10.55;5.50;;;;;;;4.13;100.00;96629.44;5022081;28;20482;-71
2022/11/24 07:53:53;;;;;;;10.35;4.70;;;;;;;4.08;100.00;96628.28;5028241;28;20497;-73
2022/11/24 07:56:21;;;;;;;6.00;3.67;;;;;;;4.10;100.00;96629.75;5027893;28;20470;-74
2022/11/24 07:58:49;;;;;;;9.13;4.40;;;;;;;4.08;100.00;96636.97;4991480;28;20200;-76
2022/11/24 08:01:20;;;;;;;7.67;4.70;;;;;;;4.17;100.00;96645.69;5019480;28;20280;-72
2022/11/24 08:03:48;;;;;;;11.43;5.47;;;;;;;4.23;100.00;96645.06;5007850;28;20964;-74
2022/11/24 08:06:15;;;;;;;7.03;3.97;;;;;;;4.25;100.00;96640.47;5025089;28;20232;-74
2022/11/24 08:08:57;;;;;;;8.80;4.10;;;;;;;4.37;100.00;96645.47;5022587;28;20207;-75
2022/11/24 08:11:24;;;;;;;9.30;4.43;;;;;;;4.47;100.00;96636.47;5034937;28;20440;-75
2022/11/24 08:13:52;;;;;;;10.57;3.47;;;;;;;4.64;100.00;96642.59;5028851;28;20659;-73
2022/11/24 08:16:20;;;;;;;10.48;4.40;;;;;;;4.78;100.00;96637.72;4996973;28;20451;-73
2022/11/24 08:18:52;;;;;;;6.63;3.60;;;;;;;4.91;100.00;96637.22;5030729;28;20658;-73
2022/11/24 08:21:21;;;;;;;4.97;3.40;;;;;;;4.97;100.00;96646.28;5007716;28;20216;-73
2022/11/24 08:23:49;;;;;;;8.73;4.03;;;;;;;4.97;100.00;96649.75;5025269;28;20667;-71
2022/11/24 08:26:18;;;;;;;8.43;3.50;;;;;;;4.97;100.00;96644.47;5034363;28;20258;-73
2022/11/24 08:28:47;;;;;;;8.43;3.70;;;;;;;4.99;100.00;96641.69;5021092;28;20207;-73
2022/11/24 08:31:17;;;;;;;7.33;3.60;;;;;;;5.05;100.00;96643.66;4989878;28;20207;-73
2022/11/24 08:33:45;;;;;;;6.53;3.30;;;;;;;5.06;100.00;96648.75;5030951;28;20655;-72
2022/11/24 08:36:14;;;;;;;5.13;3.07;;;;;;;5.11;100.00;96648.25;5007400;28;20227;-74
2022/11/24 08:38:43;;;;;;;4.93;3.23;;;;;;;5.06;100.00;96646.13;5031241;28;20685;-71
2022/11/24 08:41:12;;;;;;;7.07;3.20;;;;;;;5.08;100.00;96656.47;5032939;28;20750;-73
2022/11/24 08:43:42;;;;;;;6.67;3.43;;;;;;;5.02;100.00;96654.47;5025977;28;20457;-71
2022/11/24 08:46:11;;;;;;;8.90;3.40;;;;;;;4.98;100.00;96654.00;4986879;28;22097;-73
2022/11/24 08:48:40;;;;;;;7.63;3.23;;;;;;;4.98;100.00;96646.13;5034792;28;20555;-72
2022/11/24 08:51:10;;;;;;;4.93;3.37;;;;;;;4.95;100.00;96649.06;5004384;28;23245;-74
2022/11/24 08:53:38;;;;;;;5.50;3.27;;;;;;;4.87;100.00;96641.16;5012612;28;20759;-73
2022/11/24 08:56:07;;;;;;;10.03;3.40;;;;;;;4.82;100.00;96646.91;5027183;28;20220;-74
2022/11/24 08:58:35;;;;;;;7.83;4.10;;;;;;;4.79;100.00;96655.13;5030718;28;20684;-74
2022/11/24 09:01:06;;;;;;;8.40;4.40;;;;;;;4.81;100.00;96654.94;5028889;28;20606;-75
2022/11/24 09:03:34;;;;;;;5.27;3.23;;;;;;;4.87;100.00;96657.75;4945276;28;20722;-73
2022/11/24 09:06:02;;;;;;;4.20;3.27;;;;;;;4.90;100.00;96653.97;5009655;28;20227;-74
2022/11/24 09:08:29;;;;;;;4.33;3.67;;;;;;;5.22;100.00;96658.47;5032408;28;20215;-72
2022/11/24 09:10:59;;;;;;;4.63;3.43;;;;;;;5.50;100.00;96655.53;5033481;28;20211;-75
2022/11/24 09:13:27;;;;;;;5.83;3.80;;;;;;;5.60;100.00;96660.59;5007722;28;20220;-71
2022/11/24 09:15:55;;;;;;;7.53;3.80;;;;;;;5.56;100.00;96659.28;5026220;28;20200;-75
2022/11/24 09:18:25;;;;;;;5.60;3.17;;;;;;;5.57;100.00;96657.47;5002552;28;20305;-70
2022/11/24 09:21:06;;;;;;;6.50;3.03;;;;;;;5.59;100.00;96658.94;5027450;28;20435;-73
2022/11/24 09:23:33;;;;;;;4.87;3.10;;;;;;;5.61;100.00;96658.78;5028357;28;20330;-74
2022/11/24 09:26:04;;;;;;;5.93;3.23;;;;;;;5.58;100.00;96665.19;5034087;28;20224;-73
2022/11/24 09:28:32;;;;;;;3.57;2.80;;;;;;;5.59;100.00;96666.03;5002802;28;20787;-74
2022/11/24 09:31:03;;;;;;;5.63;3.13;;;;;;;5.76;100.00;96670.28;5030576;28;20638;-73
2022/11/24 09:33:32;;;;;;;5.40;3.27;;;;;;;5.83;100.00;96673.06;5027989;28;20310;-73
2022/11/24 09:36:00;;;;;;;3.93;3.10;;;;;;;5.89;100.00;96676.84;4991884;28;20214;-72
2022/11/24 09:38:28;;;;;;;4.87;3.40;;;;;;;6.05;100.00;96678.63;5028292;28;20207;-73
2022/11/24 09:40:56;;;;;;;3.87;3.47;;;;;;;6.07;100.00;96669.59;5006199;28;20219;-75
2022/11/24 09:43:30;;;;;;;4.10;3.60;;;;;;;6.01;100.00;96672.91;5004677;28;20215;-75
2022/11/24 09:46:05;;;;;;;5.37;2.63;;;;;;;6.00;100.00;96665.97;5030090;28;20222;-76
2022/11/24 09:48:38;;;;;;;4.50;3.23;;;;;;;6.01;100.00;96665.00;5029218;28;20221;-75
2022/11/24 09:51:05;;;;;;;4.77;2.53;;;;;;;6.03;100.00;96668.28;4988164;28;20223;-74
2022/11/24 09:53:36;;;;;;;6.43;3.13;;;;;;;6.15;100.00;96662.66;5023596;28;20410;-73
2022/11/24 09:56:12;;;;;;;4.87;2.60;;;;;;;6.08;100.00;96659.91;5011003;28;20211;-71
2022/11/24 09:58:43;;;;;;;3.50;3.20;;;;;;;6.06;100.00;96662.69;5012137;28;20575;-72
2022/11/24 10:01:15;;;;;;;8.33;3.70;;;;;;;6.25;100.00;96671.22;5029562;28;20620;-72
2022/11/24 10:03:46;;;;;;;5.63;2.80;;;;;;;6.30;100.00;96666.25;5033209;28;20210;-75
2022/11/24 10:06:23;;;;;;;6.57;3.40;;;;;;;6.48;100.00;96670.44;4996865;28;20548;-73
2022/11/24 10:09:34;;;;;;;7.63;3.70;;;;;;;6.68;100.00;96662.97;5026759;28;20204;-75
2022/11/24 10:12:27;;;;;;;4.67;2.80;;;;;;;6.95;100.00;96659.03;4999949;28;20212;-74
2022/11/24 10:15:05;;;;;;;6.03;3.00;;;;;;;6.92;100.00;96658.56;5010301;28;20208;-74
2022/11/24 10:17:44;;;;;;;6.00;3.07;;;;;;;7.03;100.00;96654.72;5023094;28;21519;-74
2022/11/24 10:20:19;;;;;;;4.77;2.60;;;;;;;7.10;100.00;96653.84;5029301;28;20199;-73
2022/11/24 10:22:50;;;;;;;6.73;2.90;;;;;;;7.28;100.00;96655.38;4977813;28;20293;-75
2022/11/24 10:25:21;;;;;;;10.43;2.97;;;;;;;7.33;100.00;96662.72;5000812;28;20203;-73
2022/11/24 10:27:52;;;;;;;4.87;2.60;;;;;;;7.34;100.00;96653.81;5015106;28;20284;-73
2022/11/24 10:30:22;;;;;;;4.30;2.73;;;;;;;7.20;100.00;96660.72;4994798;28;20192;-73
2022/11/24 10:32:54;;;;;;;6.60;2.93;;;;;;;6.95;100.00;96661.66;5031970;28;20211;-75
2022/11/24 10:35:29;;;;;;;9.80;3.40;;;;;;;6.83;100.00;96659.63;5029304;28;20196;-75
2022/11/24 10:38:03;;;;;;;4.37;2.50;;;;;;;6.89;100.00;96657.09;5002621;28;20235;-72
2022/11/24 10:40:35;;;;;;;5.13;3.00;;;;;;;6.78;100.00;96666.19;5030408;28;21053;-72
2022/11/24 10:43:25;;;;;;;4.57;2.63;;;;;;;6.78;100.00;96666.19;5019643;28;20227;-75
2022/11/24 10:45:54;;;;;;;3.03;2.43;;;;;;;6.75;100.00;96677.06;5014636;28;20231;-74
2022/11/24 10:48:25;;;;;;;4.20;2.77;;;;;;;6.77;100.00;96682.19;5026513;28;20922;-71
2022/11/24 10:51:01;;;;;;;4.70;2.37;;;;;;;6.49;100.00;96666.81;5025453;28;20621;-74
2022/11/24 10:53:30;;;;;;;5.60;2.67;;;;;;;6.45;100.00;96673.44;4994403;28;20536;-71
2022/11/24 10:56:00;;;;;;;4.93;2.87;;;;;;;6.39;100.00;96667.03;5029480;28;20303;-75
2022/11/24 10:58:29;;;;;;;4.47;2.70;;;;;;;6.25;100.00;96675.63;5007260;28;20735;-71
2022/11/24 11:01:19;;;;;;;4.87;2.00;;;;;;;6.12;100.00;96679.63;5011194;28;20211;-71
2022/11/24 11:03:49;;;;;;;4.43;2.63;;;;;;;6.06;100.00;96677.63;5028255;28;20334;-72
2022/11/24 11:06:23;;;;;;;5.93;2.40;;;;;;;6.10;100.00;96680.75;5028168;28;20232;-70
2022/11/24 11:09:16;;;;;;;4.20;2.30;;;;;;;6.15;100.00;96675.81;4994521;28;20264;-72
2022/11/24 11:11:45;;;;;;;2.17;1.70;;;;;;;6.11;100.00;96674.50;4976523;28;20226;-74
2022/11/24 11:14:13;;;;;;;2.67;1.83;;;;;;;6.18;100.00;96681.56;5024225;28;20351;-76
2022/11/24 11:16:42;;;;;;;2.87;1.73;;;;;;;6.07;100.00;96684.56;5027671;28;20220;-72
2022/11/24 11:19:32;;;;;;;3.40;2.10;;;;;;;5.79;100.00;96685.69;5003825;28;20214;-74
2022/11/24 11:22:23;;;;;;;4.17;1.63;;;;;;;5.70;100.00;96684.06;5027696;28;20206;-73
2022/11/24 11:25:04;;;;;;;2.33;1.70;;;;;;;5.60;100.00;96689.50;5025781;28;20407;-73
2022/11/24 11:27:32;;;;;;;2.00;1.80;;;;;;;5.56;100.00;96698.69;4993354;28;20239;-73
2022/11/24 11:30:17;;;;;;;1.63;1.53;;;;;;;5.54;100.00;96699.88;5025476;28;20203;-73
2022/11/24 11:33:19;;;;;;;2.00;1.80;;;;;;;5.65;100.00;96694.28;5028425;28;20462;-74
2022/11/24 11:36:09;;;;;;;2.93;2.07;;;;;;;5.95;100.00;96702.47;5015041;28;21018;-76
2022/11/24 11:38:39;;;;;;;5.33;2.33;;;;;;;5.85;100.00;96705.25;5031654;28;20208;-74